createdAt,value
2023-01-20T00:01:16.366Z,1.86
2023-01-20T00:06:20.891Z,1.85
2023-01-20T00:11:23.800Z,1.82
2023-01-20T00:16:27.298Z,1.88
2023-01-20T00:21:31.449Z,1.94
2023-01-20T00:26:34.170Z,1.94
2023-01-20T00:31:37.265Z,1.89
2023-01-20T00:36:41.396Z,1.83
2023-01-20T00:41:44.206Z,1.81
2023-01-20T00:46:47.169Z,1.80
2023-01-20T00:51:51.281Z,1.82
2023-01-20T00:56:54.017Z,1.92
2023-01-20T01:01:56.851Z,1.82
2023-01-20T01:07:00.995Z,1.70
2023-01-20T01:12:03.794Z,1.72
2023-01-20T01:17:06.711Z,1.67
2023-01-20T01:22:10.802Z,1.68
2023-01-20T01:27:13.668Z,1.81
2023-01-20T01:32:16.438Z,1.86
2023-01-20T01:37:20.556Z,1.82
2023-01-20T01:42:25.289Z,1.70
2023-01-20T01:47:28.032Z,1.62
2023-01-20T01:52:32.674Z,1.62
2023-01-20T01:57:35.886Z,1.69
2023-01-20T02:02:38.711Z,1.70
2023-01-20T02:07:43.896Z,1.80
2023-01-20T02:12:49.544Z,1.81
2023-01-20T02:18:03.516Z,1.84
2023-01-20T02:23:12.573Z,1.84
2023-01-20T02:28:45.852Z,1.77
2023-01-20T02:33:53.513Z,1.68
2023-01-20T02:39:00.864Z,1.67
2023-01-20T02:44:09.807Z,1.73
2023-01-20T02:49:16.177Z,1.67
2023-01-20T02:54:19.836Z,1.67
2023-01-20T02:59:25.872Z,1.74
2023-01-20T03:04:35.831Z,1.78
2023-01-20T03:09:40.217Z,1.73
2023-01-20T03:14:43.118Z,1.75
2023-01-20T03:19:47.358Z,1.73
2023-01-20T03:24:50.306Z,1.68
2023-01-20T03:29:53.082Z,1.68
2023-01-20T03:34:57.620Z,1.66
2023-01-20T03:40:01.708Z,1.66
2023-01-20T03:45:07.868Z,1.72
2023-01-20T03:50:19.131Z,1.87
2023-01-20T03:55:24.640Z,1.98
2023-01-20T04:00:29.741Z,1.99
2023-01-20T04:05:34.944Z,2.00
2023-01-20T04:10:40.227Z,1.83
2023-01-20T04:15:44.940Z,1.71
2023-01-20T04:20:51.537Z,1.67
2023-01-20T04:25:54.490Z,1.63
2023-01-20T04:30:57.552Z,1.67
2023-01-20T04:36:01.777Z,1.83
2023-01-20T04:41:04.658Z,1.89
2023-01-20T04:46:07.462Z,1.88
2023-01-20T04:51:11.891Z,1.90
2023-01-20T04:56:15.795Z,1.99
2023-01-20T05:01:18.623Z,1.91
2023-01-20T05:06:22.705Z,1.88
2023-01-20T05:11:25.531Z,1.85
2023-01-20T05:16:31.915Z,1.81
2023-01-20T05:21:36.072Z,1.76
2023-01-20T05:26:38.902Z,1.68
2023-01-20T05:31:43.304Z,1.65
2023-01-20T05:36:47.660Z,1.67
2023-01-20T05:41:50.660Z,1.70
2023-01-20T05:46:53.490Z,1.72
2023-01-20T05:51:57.589Z,1.65
2023-01-20T05:57:00.530Z,1.62
2023-01-20T06:02:03.373Z,1.64
2023-01-20T06:07:07.464Z,1.73
2023-01-20T06:12:10.275Z,1.62
2023-01-20T06:17:13.115Z,1.55
2023-01-20T06:22:19.572Z,1.66
2023-01-20T06:27:22.308Z,1.65
2023-01-20T06:32:25.156Z,1.67
2023-01-20T06:37:29.271Z,1.71
2023-01-20T06:42:32.277Z,1.62
2023-01-20T06:47:35.056Z,1.59
2023-01-20T06:52:39.115Z,1.50
2023-01-20T06:57:42.027Z,1.55
2023-01-20T07:02:44.850Z,1.61
2023-01-20T07:07:49.060Z,1.64
2023-01-20T07:12:51.772Z,1.71
2023-01-20T07:17:54.529Z,1.75
2023-01-20T07:23:00.491Z,1.76
2023-01-20T07:28:03.230Z,1.75
2023-01-20T07:33:06.033Z,1.77
2023-01-20T07:38:10.357Z,1.81
2023-01-20T07:43:13.256Z,1.89
2023-01-20T07:48:15.975Z,1.89
2023-01-20T07:53:20.161Z,1.94
2023-01-20T07:58:22.968Z,2.11
2023-01-20T08:03:27.483Z,2.05
2023-01-20T08:08:31.950Z,1.98
2023-01-20T08:13:35.239Z,2.00
2023-01-20T08:18:38.398Z,2.17
2023-01-20T08:23:42.456Z,2.26
2023-01-20T08:28:45.241Z,2.40
2023-01-20T08:33:48.304Z,2.51
2023-01-20T08:38:52.447Z,2.39
2023-01-20T08:43:55.782Z,2.32
2023-01-20T08:48:58.877Z,2.21
2023-01-20T08:54:03.340Z,2.12
2023-01-20T08:59:06.282Z,2.13
2023-01-20T09:04:09.054Z,2.20
2023-01-20T09:09:13.724Z,2.32
2023-01-20T09:14:16.645Z,2.37
2023-01-20T09:19:19.792Z,2.26
2023-01-20T09:24:24.274Z,2.25
2023-01-20T09:29:27.064Z,2.29
2023-01-20T09:34:30.251Z,2.48
2023-01-20T09:39:52.013Z,2.63
2023-01-20T09:44:57.629Z,2.76
2023-01-20T09:50:41.399Z,2.78
2023-01-20T09:55:50.275Z,2.79
2023-01-20T10:00:55.299Z,2.91
2023-01-20T10:06:00.409Z,3.03
2023-01-20T10:11:08.225Z,3.04
2023-01-20T10:16:13.138Z,2.84
2023-01-20T10:21:20.629Z,2.83
2023-01-20T10:26:29.627Z,2.97
2023-01-20T10:31:36.092Z,3.00
2023-01-20T10:36:41.359Z,3.11
2023-01-20T10:41:48.369Z,3.30
2023-01-20T10:46:58.919Z,3.27
2023-01-20T10:52:12.628Z,3.22
2023-01-20T10:57:17.113Z,3.12
2023-01-20T11:02:22.240Z,3.05
2023-01-20T11:07:25.048Z,3.05
2023-01-20T11:12:31.538Z,3.20
2023-01-20T11:17:34.274Z,3.09
2023-01-20T11:22:38.715Z,3.11
2023-01-20T11:27:45.821Z,3.19
2023-01-20T11:33:08.611Z,3.18
2023-01-20T11:38:25.626Z,3.19
2023-01-20T11:43:31.297Z,3.16
2023-01-20T11:48:34.226Z,3.13
2023-01-20T11:53:37.016Z,3.26
2023-01-20T11:58:52.530Z,3.49
2023-01-20T12:04:21.365Z,3.34
2023-01-20T12:09:27.965Z,3.15
2023-01-20T12:14:33.520Z,3.12
2023-01-20T12:19:42.054Z,3.25
2023-01-20T12:25:10.827Z,3.29
2023-01-20T12:30:34.809Z,3.20
2023-01-20T12:35:42.992Z,3.37
2023-01-20T12:40:49.082Z,3.34
2023-01-20T12:46:05.128Z,3.46
2023-01-20T12:51:15.505Z,3.30
2023-01-20T12:56:23.789Z,3.30
2023-01-20T13:01:42.638Z,3.39
2023-01-20T13:06:55.464Z,3.32
2023-01-20T13:12:06.573Z,3.26
2023-01-20T13:17:17.362Z,3.06
2023-01-20T13:22:21.809Z,3.05
2023-01-20T13:27:27.689Z,3.07
2023-01-20T13:32:36.560Z,3.10
2023-01-20T13:37:40.027Z,3.12
2023-01-20T13:42:53.320Z,3.12
2023-01-20T13:48:00.453Z,3.18
2023-01-20T13:53:22.471Z,3.22
2023-01-20T13:58:43.847Z,3.18
2023-01-20T14:04:02.673Z,3.18
2023-01-20T14:09:12.865Z,3.10
2023-01-20T14:14:20.252Z,3.05
2023-01-20T14:19:29.803Z,2.98
2023-01-20T14:24:34.473Z,2.99
2023-01-20T14:29:37.211Z,2.98
2023-01-20T14:34:41.462Z,2.94
2023-01-20T14:39:49.268Z,2.98
2023-01-20T14:44:53.499Z,3.02
2023-01-20T14:49:57.627Z,2.89
2023-01-20T14:55:00.339Z,2.88
2023-01-20T15:00:21.610Z,2.92
2023-01-20T15:05:28.858Z,3.03
2023-01-20T15:10:31.744Z,2.97
2023-01-20T15:15:34.769Z,2.88
2023-01-20T15:20:40.456Z,2.80
2023-01-20T15:25:43.450Z,2.86
2023-01-20T15:30:46.234Z,2.86
2023-01-20T15:35:54.691Z,2.76
2023-01-20T15:40:57.557Z,2.51
2023-01-20T15:46:00.397Z,2.45
2023-01-20T15:51:07.045Z,2.42
2023-01-20T15:56:15.527Z,2.37
2023-01-20T16:01:20.410Z,2.31
2023-01-20T16:06:28.999Z,2.07
2023-01-20T16:11:32.035Z,2.00
2023-01-20T16:16:35.118Z,1.91
2023-01-20T16:21:39.462Z,1.92
2023-01-20T16:26:44.258Z,1.77
2023-01-20T16:31:47.255Z,1.68
2023-01-20T16:36:51.793Z,1.54
2023-01-20T16:41:54.674Z,1.43
2023-01-20T16:46:58.567Z,1.24
2023-01-20T16:52:03.270Z,1.17
2023-01-20T16:57:06.355Z,1.08
2023-01-20T17:02:10.907Z,1.09
2023-01-20T17:07:15.161Z,1.24
2023-01-20T17:12:18.160Z,1.33
2023-01-20T17:17:22.438Z,1.47
2023-01-20T17:22:26.625Z,1.53
2023-01-20T17:27:29.344Z,1.56
2023-01-20T17:32:32.067Z,1.56
2023-01-20T17:37:36.084Z,1.41
2023-01-20T17:42:39.315Z,1.52
2023-01-20T17:47:42.106Z,1.63
2023-01-20T17:52:46.237Z,1.51
2023-01-20T17:57:51.111Z,1.30
2023-01-20T18:02:56.573Z,1.17
2023-01-20T18:08:00.709Z,1.06
2023-01-20T18:13:03.662Z,1.14
2023-01-20T18:18:06.461Z,1.36
2023-01-20T18:23:10.586Z,1.55
2023-01-20T18:28:13.545Z,1.39
2023-01-20T18:33:16.280Z,1.44
2023-01-20T18:38:20.515Z,1.29
2023-01-20T18:43:23.220Z,1.24
2023-01-20T18:48:26.502Z,1.20
2023-01-20T18:53:31.651Z,1.21
2023-01-20T18:58:34.772Z,1.35
2023-01-20T19:03:38.454Z,1.44
2023-01-20T19:08:43.642Z,1.52
2023-01-20T19:13:48.623Z,1.57
2023-01-20T19:18:52.812Z,1.71
2023-01-20T19:23:59.757Z,1.68
2023-01-20T19:29:06.257Z,1.45
2023-01-20T19:34:09.899Z,1.19
2023-01-20T19:39:14.146Z,1.01
2023-01-20T19:44:16.910Z,1.08
2023-01-20T19:49:19.814Z,1.15
2023-01-20T19:54:24.442Z,1.12
2023-01-20T19:59:27.289Z,0.97
2023-01-20T20:04:30.158Z,0.85
2023-01-20T20:09:35.201Z,0.91
2023-01-20T20:14:38.199Z,1.13
2023-01-20T20:19:41.278Z,1.24
2023-01-20T20:24:46.878Z,1.37
2023-01-20T20:29:49.597Z,1.47
2023-01-20T20:34:52.322Z,1.34
2023-01-20T20:39:56.458Z,1.15
2023-01-20T20:44:59.288Z,1.07
2023-01-20T20:50:02.155Z,1.17
2023-01-20T20:55:07.394Z,1.13
2023-01-20T21:00:11.450Z,1.16
2023-01-20T21:05:14.508Z,1.23
2023-01-20T21:10:21.051Z,1.23
2023-01-20T21:15:23.977Z,1.04
2023-01-20T21:20:26.766Z,1.15
2023-01-20T21:25:32.801Z,1.26
2023-01-20T21:30:35.861Z,1.17
2023-01-20T21:35:39.186Z,1.05
2023-01-20T21:40:59.584Z,1.01
2023-01-20T21:46:02.388Z,0.98
2023-01-20T21:51:23.053Z,0.98
2023-01-20T21:56:27.241Z,1.03
2023-01-20T22:01:30.043Z,0.97
2023-01-20T22:06:32.777Z,1.05
2023-01-20T22:11:37.005Z,1.03
2023-01-20T22:16:39.825Z,0.89
2023-01-20T22:21:42.743Z,0.89
2023-01-20T22:26:48.554Z,0.82
2023-01-20T22:31:52.796Z,0.78
2023-01-20T22:36:56.584Z,0.83
2023-01-20T22:42:00.665Z,1.02
2023-01-20T22:47:05.739Z,1.24
2023-01-20T22:52:08.436Z,1.43
2023-01-20T22:57:13.126Z,1.53
2023-01-20T23:02:16.093Z,1.53
2023-01-20T23:07:18.973Z,1.48
2023-01-20T23:12:23.307Z,1.42
2023-01-20T23:17:26.481Z,1.46
2023-01-20T23:22:29.934Z,1.52
2023-01-20T23:27:34.015Z,1.48
2023-01-20T23:32:36.818Z,1.43
2023-01-20T23:37:39.507Z,1.44
2023-01-20T23:42:43.829Z,1.41
2023-01-20T23:47:46.596Z,1.36
2023-01-20T23:52:49.349Z,1.20
2023-01-20T23:57:53.767Z,1.24
